Time;durP1;ratioP1;P1;durP2;ratioP2;P2;SDS_P1;SDS_P2;PMS_P1;PMS_P2;Temp;Humidity;BMP_temperature;BMP_pressure;BME280_temperature;BME280_humidity;BME280_pressure;Samples;Min_cycle;Max_cycle;Signal;HPM_P1;HPM_P2
2020/12/12 00:02:17;;;;;;;7.50;5.28;;;6.80;80.20;;;;;;4975973;28;20117;-76
2020/12/12 00:04:43;;;;;;;8.68;5.90;;;6.80;80.20;;;;;;4991761;28;20034;-76
2020/12/12 00:07:09;;;;;;;7.07;5.13;;;6.80;80.20;;;;;;4990242;28;20026;-75
2020/12/12 00:09:35;;;;;;;7.30;5.43;;;6.80;80.20;;;;;;4982203;28;20129;-75
2020/12/12 00:12:02;;;;;;;7.88;5.65;;;6.80;80.20;;;;;;4990836;28;20470;-75
2020/12/12 00:14:27;;;;;;;7.50;5.43;;;6.80;80.20;;;;;;4990841;28;20094;-75
2020/12/12 00:16:53;;;;;;;7.93;5.75;;;6.80;80.20;;;;;;4993672;28;20030;-75
2020/12/12 00:19:19;;;;;;;7.45;5.35;;;6.80;80.20;;;;;;4998421;28;20035;-77
2020/12/12 00:21:55;;;;;;;8.05;5.43;;;6.80;80.20;;;;;;4985104;28;20039;-75
2020/12/12 00:24:21;;;;;;;7.68;5.35;;;6.80;80.20;;;;;;4983204;28;20291;-75
2020/12/12 00:26:48;;;;;;;8.68;5.28;;;6.80;80.20;;;;;;4987078;28;20034;-75
2020/12/12 00:29:14;;;;;;;7.65;5.53;;;6.80;80.20;;;;;;4991990;28;20055;-75
2020/12/12 00:31:41;;;;;;;7.88;5.13;;;6.80;80.20;;;;;;5008911;28;20041;-75
2020/12/12 00:34:07;;;;;;;7.70;5.70;;;6.80;80.20;;;;;;4983257;28;20026;-75
2020/12/12 00:36:41;;;;;;;6.90;5.22;;;6.80;80.20;;;;;;4991850;28;20030;-74
2020/12/12 00:39:07;;;;;;;7.50;5.07;;;6.80;80.20;;;;;;4977399;28;20077;-74
2020/12/12 00:41:37;;;;;;;8.15;5.60;;;6.80;80.20;;;;;;4958525;28;20479;-75
2020/12/12 00:44:05;;;;;;;6.70;5.00;;;6.80;80.20;;;;;;4977022;28;20046;-76
2020/12/12 00:46:31;;;;;;;7.32;5.43;;;6.80;80.20;;;;;;4975822;28;20443;-74
2020/12/12 00:48:58;;;;;;;7.93;5.50;;;6.80;80.20;;;;;;4979001;28;20023;-75
2020/12/12 00:51:23;;;;;;;7.18;5.35;;;6.80;80.20;;;;;;4991834;28;20042;-75
2020/12/12 00:53:49;;;;;;;6.85;5.22;;;6.80;80.20;;;;;;5006555;28;20054;-75
2020/12/12 00:56:16;;;;;;;7.35;5.25;;;6.80;80.80;;;;;;4978994;28;20119;-75
2020/12/12 00:58:42;;;;;;;7.15;5.22;;;6.80;80.20;;;;;;4977366;28;20030;-75
2020/12/12 01:01:10;;;;;;;7.57;5.75;;;6.80;80.20;;;;;;4992587;28;20031;-75
2020/12/12 01:03:36;;;;;;;8.48;5.55;;;6.80;80.20;;;;;;4990305;28;20054;-75
2020/12/12 01:06:02;;;;;;;7.85;5.53;;;6.90;80.90;;;;;;4992317;28;20622;-75
2020/12/12 01:08:28;;;;;;;6.68;4.68;;;6.80;80.20;;;;;;4995029;28;20036;-75
2020/12/12 01:10:54;;;;;;;7.78;5.25;;;6.80;80.20;;;;;;4990168;28;20479;-75
2020/12/12 01:13:20;;;;;;;7.45;5.68;;;6.80;80.20;;;;;;4961674;28;20031;-77
2020/12/12 01:15:45;;;;;;;6.93;5.30;;;6.80;80.20;;;;;;4996572;28;20467;-75
2020/12/12 01:18:11;;;;;;;9.65;5.75;;;6.90;80.20;;;;;;5012143;28;20367;-79
2020/12/12 01:20:37;;;;;;;8.32;6.18;;;6.80;80.20;;;;;;4990193;28;20037;-74
2020/12/12 01:23:03;;;;;;;8.15;5.47;;;6.90;80.20;;;;;;4984031;28;20145;-75
2020/12/12 01:25:29;;;;;;;7.30;5.55;;;6.90;80.20;;;;;;4982457;28;20035;-75
2020/12/12 01:27:55;;;;;;;8.65;6.38;;;6.90;80.20;;;;;;4987388;28;20031;-74
2020/12/12 01:30:21;;;;;;;7.70;5.43;;;6.90;80.20;;;;;;4959331;28;20424;-74
2020/12/12 01:32:48;;;;;;;7.95;5.97;;;6.90;80.20;;;;;;4989038;28;20057;-74
2020/12/12 01:35:14;;;;;;;7.57;5.25;;;6.90;80.20;;;;;;4979661;28;20347;-75
2020/12/12 01:37:43;;;;;;;7.53;5.40;;;6.80;80.20;;;;;;4953876;28;20031;-74
2020/12/12 01:40:10;;;;;;;8.18;5.72;;;6.90;80.20;;;;;;4989910;28;20497;-75
2020/12/12 01:42:35;;;;;;;8.35;6.15;;;6.90;80.20;;;;;;4991614;28;20074;-74
2020/12/12 01:45:01;;;;;;;8.02;5.72;;;6.90;80.20;;;;;;4993290;28;20360;-74
2020/12/12 01:47:29;;;;;;;8.45;6.32;;;6.90;80.20;;;;;;4990948;28;20027;-75
2020/12/12 01:49:54;;;;;;;8.02;5.63;;;6.90;80.20;;;;;;4976493;28;20034;-75
2020/12/12 01:52:21;;;;;;;7.95;5.82;;;6.90;80.20;;;;;;4974694;28;20027;-74
2020/12/12 01:54:48;;;;;;;8.05;5.50;;;6.90;80.20;;;;;;4957520;28;20174;-75
2020/12/12 01:57:18;;;;;;;8.13;6.00;;;6.90;80.20;;;;;;5001972;28;20145;-74
2020/12/12 01:59:44;;;;;;;8.00;5.78;;;6.90;80.20;;;;;;4989254;28;20042;-74
2020/12/12 02:02:11;;;;;;;8.95;6.20;;;6.90;80.80;;;;;;4983814;28;20035;-74
2020/12/12 02:04:40;;;;;;;8.60;6.18;;;6.90;80.20;;;;;;4991520;28;20031;-75
2020/12/12 02:07:06;;;;;;;8.73;6.22;;;6.90;80.20;;;;;;4958151;28;20027;-74
2020/12/12 02:09:36;;;;;;;8.68;5.88;;;6.90;80.80;;;;;;4961353;28;20065;-75
2020/12/12 02:12:01;;;;;;;9.15;6.45;;;6.90;80.20;;;;;;4990295;28;20482;-75
2020/12/12 02:14:27;;;;;;;8.27;6.05;;;6.90;80.20;;;;;;4964828;28;20077;-75
2020/12/12 02:16:55;;;;;;;8.02;5.47;;;6.90;80.20;;;;;;4994191;28;20039;-74
2020/12/12 02:19:21;;;;;;;8.20;5.97;;;6.90;80.20;;;;;;4979561;28;20446;-75
2020/12/12 02:21:54;;;;;;;8.23;5.82;;;6.90;80.20;;;;;;4974629;28;20053;-74
2020/12/12 02:24:20;;;;;;;8.02;5.25;;;6.90;80.20;;;;;;4976476;28;20026;-75
2020/12/12 02:26:46;;;;;;;7.50;5.75;;;6.90;80.20;;;;;;5004848;28;20031;-74
2020/12/12 02:29:12;;;;;;;7.57;5.63;;;6.90;80.20;;;;;;4991914;28;20093;-77
2020/12/12 02:31:39;;;;;;;7.57;5.30;;;6.90;80.20;;;;;;4974897;28;20034;-74
2020/12/12 02:34:06;;;;;;;7.45;5.38;;;7.00;80.30;;;;;;4991720;28;20027;-74
2020/12/12 02:36:39;;;;;;;8.55;6.15;;;6.90;80.20;;;;;;4991337;28;20169;-74
2020/12/12 02:39:07;;;;;;;8.68;6.30;;;7.00;80.90;;;;;;4990196;28;20022;-76
2020/12/12 02:41:34;;;;;;;8.32;6.00;;;7.00;80.20;;;;;;4975970;28;20023;-74
2020/12/12 02:44:00;;;;;;;8.23;6.00;;;7.00;80.20;;;;;;4963980;28;20129;-75
2020/12/12 02:46:26;;;;;;;8.15;5.80;;;7.00;80.20;;;;;;4980076;28;20525;-75
2020/12/12 02:48:52;;;;;;;8.48;5.70;;;7.00;80.20;;;;;;4988706;28;20064;-74
2020/12/12 02:51:18;;;;;;;8.27;5.88;;;7.00;80.20;;;;;;4990294;28;20387;-75
2020/12/12 02:53:47;;;;;;;8.82;6.00;;;7.00;80.30;;;;;;4992273;28;20126;-74
2020/12/12 02:56:14;;;;;;;8.65;6.03;;;7.00;80.20;;;;;;4984592;28;20038;-75
2020/12/12 02:58:40;;;;;;;7.80;5.43;;;7.00;80.20;;;;;;4975136;28;20080;-74
2020/12/12 03:01:06;;;;;;;6.95;5.15;;;7.00;80.20;;;;;;4991328;28;20129;-74
2020/12/12 03:03:33;;;;;;;7.85;5.80;;;7.00;80.20;;;;;;4986532;28;20478;-74
2020/12/12 03:06:00;;;;;;;8.40;6.07;;;7.00;80.20;;;;;;4997835;28;20035;-74
2020/12/12 03:08:26;;;;;;;8.13;5.43;;;7.00;80.30;;;;;;4981937;28;20035;-75
2020/12/12 03:10:52;;;;;;;8.10;5.60;;;7.00;80.30;;;;;;4986203;28;20046;-75
2020/12/12 03:13:18;;;;;;;8.63;6.13;;;7.00;80.30;;;;;;4987395;28;20035;-74
2020/12/12 03:15:44;;;;;;;7.32;5.53;;;7.00;80.20;;;;;;4957100;28;20097;-75
2020/12/12 03:18:10;;;;;;;7.60;5.55;;;7.00;80.20;;;;;;4976572;28;20038;-75
2020/12/12 03:20:35;;;;;;;8.48;6.07;;;7.00;80.20;;;;;;4990657;28;20540;-74
2020/12/12 03:23:01;;;;;;;7.60;5.25;;;7.00;80.20;;;;;;4985057;28;20065;-74
2020/12/12 03:25:27;;;;;;;8.07;5.35;;;7.10;80.30;;;;;;4985570;28;20053;-74
2020/12/12 03:27:53;;;;;;;7.68;5.70;;;7.00;80.20;;;;;;4990273;28;20057;-74
2020/12/12 03:30:18;;;;;;;7.53;5.57;;;7.00;80.20;;;;;;4963133;28;20042;-74
2020/12/12 03:32:44;;;;;;;7.90;6.05;;;7.00;80.20;;;;;;4978467;28;20054;-74
2020/12/12 03:35:10;;;;;;;7.85;5.60;;;7.10;80.30;;;;;;4995329;28;20037;-74
2020/12/12 03:37:35;;;;;;;7.82;5.72;;;7.00;80.20;;;;;;4993699;28;20042;-75
2020/12/12 03:40:03;;;;;;;7.40;5.47;;;7.10;80.20;;;;;;4992539;28;20093;-75
2020/12/12 03:42:29;;;;;;;7.88;5.90;;;7.10;80.30;;;;;;4988317;28;20376;-76
2020/12/12 03:44:54;;;;;;;7.70;5.65;;;7.10;80.20;;;;;;4994686;28;20078;-74
2020/12/12 03:47:20;;;;;;;7.63;5.43;;;7.10;80.30;;;;;;4983734;28;20147;-74
2020/12/12 03:49:46;;;;;;;8.13;5.90;;;7.10;80.30;;;;;;4973656;28;20398;-74
2020/12/12 03:52:12;;;;;;;7.80;5.55;;;7.10;80.20;;;;;;4964102;28;20026;-80
2020/12/12 03:54:37;;;;;;;7.13;5.00;;;7.10;80.20;;;;;;4978994;28;20494;-74
2020/12/12 03:57:04;;;;;;;7.28;5.40;;;7.10;80.20;;;;;;4985084;28;20030;-74
2020/12/12 03:59:30;;;;;;;7.60;5.53;;;7.10;80.20;;;;;;4970444;28;20034;-74
2020/12/12 04:01:56;;;;;;;7.05;5.00;;;7.10;80.20;;;;;;4990622;28;20552;-76
2020/12/12 04:04:21;;;;;;;7.47;5.45;;;7.10;80.20;;;;;;4959655;28;20482;-74
2020/12/12 04:06:47;;;;;;;6.95;5.30;;;7.10;80.20;;;;;;4993903;28;20030;-74
2020/12/12 04:09:13;;;;;;;7.00;5.18;;;7.10;80.30;;;;;;5006340;28;20082;-74
2020/12/12 04:11:38;;;;;;;7.28;5.57;;;7.10;80.20;;;;;;4986535;28;20034;-74
2020/12/12 04:14:04;;;;;;;7.63;5.25;;;7.10;80.20;;;;;;4980825;28;20390;-75
2020/12/12 04:16:30;;;;;;;7.22;4.97;;;7.10;80.20;;;;;;5008093;28;20039;-74
2020/12/12 04:18:56;;;;;;;7.85;5.85;;;7.10;80.20;;;;;;4975530;28;20081;-74
2020/12/12 04:21:23;;;;;;;8.07;5.68;;;7.10;80.20;;;;;;4984245;28;20550;-74
2020/12/12 04:23:48;;;;;;;6.82;5.25;;;7.10;80.30;;;;;;5010694;28;20058;-74
2020/12/12 04:26:14;;;;;;;7.88;5.60;;;7.10;80.20;;;;;;4988488;28;20058;-74
2020/12/12 04:28:40;;;;;;;7.18;5.03;;;7.10;80.20;;;;;;4972568;28;21520;-74
2020/12/12 04:31:07;;;;;;;7.53;5.47;;;7.10;80.20;;;;;;5000788;28;20035;-74
2020/12/12 04:33:33;;;;;;;6.95;4.95;;;7.10;80.20;;;;;;4987442;28;20030;-74
2020/12/12 04:35:58;;;;;;;7.57;5.38;;;7.10;80.20;;;;;;4991562;28;20026;-74
2020/12/12 04:38:24;;;;;;;7.30;5.03;;;7.10;80.20;;;;;;4988813;28;20033;-75
2020/12/12 04:40:52;;;;;;;8.00;5.43;;;7.10;80.20;;;;;;4987988;28;20038;-74
2020/12/12 04:43:18;;;;;;;6.80;4.95;;;7.10;80.20;;;;;;4965750;28;20049;-74
2020/12/12 04:45:46;;;;;;;7.50;5.38;;;7.10;80.20;;;;;;4989833;28;20030;-74
2020/12/12 04:48:12;;;;;;;7.97;5.47;;;7.10;80.20;;;;;;4987370;28;20074;-79
2020/12/12 04:50:38;;;;;;;7.63;5.18;;;7.20;80.20;;;;;;4982803;28;20062;-74
2020/12/12 04:53:13;;;;;;;7.32;5.35;;;7.20;80.20;;;;;;4969911;28;20031;-74
2020/12/12 04:55:57;;;;;;;7.32;5.38;;;7.10;80.20;;;;;;4984629;28;20027;-74
2020/12/12 04:58:25;;;;;;;6.72;5.18;;;7.10;80.20;;;;;;4993493;28;20034;-75
2020/12/12 05:00:53;;;;;;;6.53;4.80;;;7.10;80.20;;;;;;4986453;28;20038;-75
2020/12/12 05:03:21;;;;;;;7.18;5.15;;;7.20;80.20;;;;;;4985588;28;20034;-74
2020/12/12 05:05:47;;;;;;;7.72;5.47;;;7.20;80.20;;;;;;4952711;28;20038;-75
2020/12/12 05:08:14;;;;;;;7.22;5.13;;;7.20;80.20;;;;;;4984910;28;20459;-74
2020/12/12 05:10:41;;;;;;;7.10;5.22;;;7.20;80.20;;;;;;4972289;28;20061;-74
2020/12/12 05:13:25;;;;;;;6.60;4.97;;;7.20;80.20;;;;;;4978963;28;20117;-74
2020/12/12 05:15:53;;;;;;;7.47;5.10;;;7.20;80.30;;;;;;4982991;28;20031;-74
2020/12/12 05:18:19;;;;;;;7.43;5.40;;;7.20;80.20;;;;;;4981082;28;20089;-74
2020/12/12 05:20:46;;;;;;;6.40;4.68;;;7.20;80.20;;;;;;4964817;28;20077;-75
2020/12/12 05:23:17;;;;;;;7.43;5.47;;;7.20;80.80;;;;;;4967309;28;20038;-78
2020/12/12 05:25:44;;;;;;;7.38;5.45;;;7.20;80.20;;;;;;4987778;28;20093;-75
2020/12/12 05:28:12;;;;;;;7.97;5.47;;;7.20;80.80;;;;;;4993278;28;20040;-74
2020/12/12 05:30:38;;;;;;;7.05;5.35;;;7.20;80.20;;;;;;4989789;28;20030;-75
2020/12/12 05:33:09;;;;;;;6.95;4.85;;;7.20;80.20;;;;;;4988505;28;20053;-75
2020/12/12 05:35:35;;;;;;;6.95;4.85;;;7.20;80.20;;;;;;4990513;28;20081;-75
2020/12/12 05:38:03;;;;;;;7.72;5.18;;;7.20;80.20;;;;;;4976569;28;20026;-74
2020/12/12 05:40:29;;;;;;;7.60;5.13;;;7.20;80.20;;;;;;4982735;28;20118;-74
2020/12/12 05:42:55;;;;;;;7.22;5.00;;;7.20;80.20;;;;;;4973344;28;20118;-75
2020/12/12 05:45:21;;;;;;;6.88;4.90;;;7.20;80.20;;;;;;4982691;28;20049;-75
2020/12/12 05:47:47;;;;;;;7.53;5.30;;;7.20;80.20;;;;;;4992785;28;20034;-74
2020/12/12 05:50:13;;;;;;;7.88;5.85;;;7.20;80.20;;;;;;4992200;28;20038;-75
2020/12/12 05:52:42;;;;;;;7.45;5.00;;;7.20;80.20;;;;;;4990382;28;20089;-75
2020/12/12 05:55:08;;;;;;;7.78;5.18;;;7.20;80.20;;;;;;4991985;28;20058;-75
2020/12/12 05:57:36;;;;;;;7.03;5.20;;;7.20;80.20;;;;;;4974364;28;20069;-75
2020/12/12 06:00:06;;;;;;;7.30;4.82;;;7.20;80.20;;;;;;4986252;28;20035;-75
2020/12/12 06:02:42;;;;;;;6.20;4.88;;;7.20;80.20;;;;;;5002006;28;20121;-74
2020/12/12 06:05:18;;;;;;;6.85;4.88;;;7.20;80.20;;;;;;4977388;28;20077;-74
2020/12/12 06:07:53;;;;;;;7.18;5.10;;;7.20;80.20;;;;;;4981894;28;20034;-74
2020/12/12 06:10:28;;;;;;;7.45;5.22;;;7.20;80.20;;;;;;4986643;28;20062;-74
2020/12/12 06:12:57;;;;;;;6.75;4.90;;;7.20;80.10;;;;;;4986486;28;20455;-75
2020/12/12 06:15:39;;;;;;;6.60;4.75;;;7.20;80.10;;;;;;4982426;28;20027;-74
2020/12/12 06:18:04;;;;;;;7.50;5.55;;;7.20;80.20;;;;;;4977778;28;20493;-74
2020/12/12 06:20:30;;;;;;;6.82;4.88;;;7.20;80.10;;;;;;4976751;28;20042;-76
2020/12/12 06:22:58;;;;;;;6.65;4.78;;;7.30;80.20;;;;;;4976448;28;20042;-74
2020/12/12 06:25:27;;;;;;;6.50;4.55;;;7.30;80.20;;;;;;4984515;28;20054;-74
2020/12/12 06:27:55;;;;;;;6.97;5.03;;;7.30;80.20;;;;;;4986675;28;20034;-74
2020/12/12 06:30:26;;;;;;;6.00;4.57;;;7.30;80.20;;;;;;4964063;28;20056;-76
2020/12/12 06:33:00;;;;;;;6.53;4.57;;;7.30;80.20;;;;;;4977683;28;20077;-74
2020/12/12 06:35:33;;;;;;;6.03;4.20;;;7.30;80.20;;;;;;4988424;28;20035;-74
2020/12/12 06:38:18;;;;;;;6.25;4.45;;;7.30;80.20;;;;;;5002912;28;20030;-74
2020/12/12 06:40:44;;;;;;;6.35;4.30;;;7.30;80.20;;;;;;4986990;28;20039;-74
2020/12/12 06:43:28;;;;;;;6.05;4.20;;;7.30;80.20;;;;;;4973209;28;20034;-74
2020/12/12 06:45:54;;;;;;;7.13;4.60;;;7.30;80.20;;;;;;4975384;28;20538;-74
2020/12/12 06:48:27;;;;;;;6.57;4.50;;;7.30;80.20;;;;;;4977420;28;20031;-74
2020/12/12 06:50:54;;;;;;;6.10;4.60;;;7.30;80.20;;;;;;4987423;28;20038;-75
2020/12/12 06:53:23;;;;;;;6.10;4.40;;;7.30;80.20;;;;;;4989598;28;20030;-74
2020/12/12 06:56:14;;;;;;;6.60;4.45;;;7.30;80.20;;;;;;4988315;28;20030;-75
2020/12/12 06:58:44;;;;;;;6.45;4.45;;;7.30;80.30;;;;;;4979110;28;20074;-74
2020/12/12 07:01:29;;;;;;;6.93;4.90;;;7.30;80.20;;;;;;4963746;28;20030;-74
2020/12/12 07:04:06;;;;;;;6.30;4.45;;;7.30;80.20;;;;;;4985818;28;20035;-74
2020/12/12 07:06:33;;;;;;;6.53;4.57;;;7.30;80.10;;;;;;4981531;28;20031;-75
2020/12/12 07:09:07;;;;;;;6.53;4.72;;;7.30;80.20;;;;;;4987382;28;20109;-75
2020/12/12 07:11:34;;;;;;;6.57;4.65;;;7.30;80.20;;;;;;4987842;28;20062;-74
2020/12/12 07:14:01;;;;;;;6.18;4.70;;;7.30;80.10;;;;;;4988911;28;20045;-74
2020/12/12 07:16:27;;;;;;;6.68;4.93;;;7.30;80.10;;;;;;4988232;28;20057;-74
2020/12/12 07:18:53;;;;;;;6.20;3.95;;;7.30;80.20;;;;;;4976863;28;20065;-74
2020/12/12 07:21:20;;;;;;;6.05;3.92;;;7.30;80.10;;;;;;4957209;28;20031;-75
2020/12/12 07:23:46;;;;;;;6.47;4.53;;;7.30;80.80;;;;;;4982651;28;20039;-74
2020/12/12 07:26:12;;;;;;;6.85;4.60;;;7.30;80.20;;;;;;4990680;28;20034;-79
2020/12/12 07:28:39;;;;;;;6.38;4.55;;;7.40;80.20;;;;;;4950606;28;20034;-77
2020/12/12 07:31:05;;;;;;;5.45;4.05;;;7.40;80.80;;;;;;4989848;28;20092;-74
2020/12/12 07:33:31;;;;;;;6.05;4.68;;;7.40;80.20;;;;;;4982960;28;20030;-74
2020/12/12 07:35:57;;;;;;;5.85;4.32;;;7.40;80.20;;;;;;4983395;28;20015;-74
2020/12/12 07:38:24;;;;;;;6.80;4.82;;;7.40;80.20;;;;;;4987382;28;20382;-74
2020/12/12 07:40:50;;;;;;;5.28;4.18;;;7.40;80.20;;;;;;4991870;28;20066;-74
2020/12/12 07:43:16;;;;;;;5.85;4.30;;;7.40;80.20;;;;;;4973392;28;20023;-74
2020/12/12 07:48:10;;;;;;;5.93;4.38;;;7.40;80.20;;;;;;4986040;28;20034;-75
2020/12/12 07:50:38;;;;;;;6.03;4.20;;;7.40;80.10;;;;;;4970599;28;20383;-74
2020/12/12 07:53:12;;;;;;;5.95;4.10;;;7.40;80.10;;;;;;4982520;28;20042;-76
2020/12/12 07:55:49;;;;;;;5.68;4.07;;;7.40;80.20;;;;;;4966526;28;20375;-75
2020/12/12 07:58:19;;;;;;;5.85;4.25;;;7.40;80.10;;;;;;4990649;28;20034;-75
2020/12/12 08:00:45;;;;;;;6.47;3.85;;;7.40;80.10;;;;;;4984208;28;20065;-75
2020/12/12 08:03:11;;;;;;;5.57;4.18;;;7.40;80.00;;;;;;4982873;28;20702;-75
2020/12/12 08:05:37;;;;;;;5.70;4.00;;;7.40;80.10;;;;;;4967885;28;20039;-75
2020/12/12 08:08:11;;;;;;;5.78;4.00;;;7.40;80.10;;;;;;4990655;28;20050;-75
2020/12/12 08:10:37;;;;;;;5.68;3.95;;;7.40;80.10;;;;;;4981335;28;20137;-75
2020/12/12 08:13:03;;;;;;;7.68;4.43;;;7.40;80.10;;;;;;4956074;28;20039;-76
2020/12/12 08:15:51;;;;;;;5.72;3.92;;;7.40;80.10;;;;;;4986553;28;20035;-76
2020/12/12 08:18:16;;;;;;;6.28;4.10;;;7.40;80.10;;;;;;4984734;28;20037;-76
2020/12/12 08:20:42;;;;;;;6.05;4.20;;;7.50;80.10;;;;;;4990153;28;20042;-75
2020/12/12 08:23:14;;;;;;;7.07;4.82;;;7.40;80.00;;;;;;4992273;28;20383;-76
2020/12/12 08:25:41;;;;;;;8.18;4.72;;;7.50;80.10;;;;;;4978558;28;20050;-77
2020/12/12 08:28:08;;;;;;;5.82;3.90;;;7.50;80.10;;;;;;4991675;28;20038;-78
2020/12/12 08:30:34;;;;;;;7.60;4.32;;;7.50;80.10;;;;;;4980119;28;20467;-77
2020/12/12 08:33:12;;;;;;;6.35;3.97;;;7.50;80.10;;;;;;4976590;28;20045;-77
2020/12/12 08:35:39;;;;;;;5.90;4.18;;;7.50;80.10;;;;;;4968534;28;20030;-76
2020/12/12 08:38:06;;;;;;;6.93;4.55;;;7.50;80.00;;;;;;4994557;28;20497;-75
2020/12/12 08:40:46;;;;;;;6.72;4.20;;;7.50;80.00;;;;;;4995437;28;20042;-77
2020/12/12 08:43:14;;;;;;;6.88;4.45;;;7.50;80.10;;;;;;4978146;28;20045;-76
2020/12/12 08:45:42;;;;;;;6.30;4.68;;;7.50;80.00;;;;;;4994419;28;20034;-75
2020/12/12 08:48:10;;;;;;;6.80;4.47;;;7.50;80.00;;;;;;4994144;28;20035;-77
2020/12/12 08:50:46;;;;;;;5.82;4.25;;;7.50;80.10;;;;;;4993808;28;20030;-75
2020/12/12 08:53:27;;;;;;;6.28;4.25;;;7.50;80.00;;;;;;4994036;28;20084;-78
2020/12/12 08:56:07;;;;;;;6.25;3.95;;;7.50;80.00;;;;;;4990991;28;20089;-76
2020/12/12 08:58:39;;;;;;;6.50;4.13;;;7.50;80.00;;;;;;4974392;28;20109;-77
2020/12/12 09:01:28;;;;;;;5.82;4.20;;;7.50;80.00;;;;;;4992567;28;20049;-76
2020/12/12 09:03:56;;;;;;;7.38;4.93;;;7.50;80.00;;;;;;4986802;28;20061;-78
2020/12/12 09:06:24;;;;;;;6.43;3.90;;;7.60;80.00;;;;;;4991145;28;20033;-76
2020/12/12 09:09:09;;;;;;;6.78;4.38;;;7.60;80.00;;;;;;4976175;28;20037;-76
2020/12/12 09:11:35;;;;;;;;;;;7.60;80.10;;;;;;4979392;28;20046;-76
2020/12/12 09:14:02;;;;;;;6.30;4.20;;;7.60;80.00;;;;;;4991543;28;19961;-75
2020/12/12 09:16:28;;;;;;;6.43;4.20;;;7.60;79.80;;;;;;4957940;28;20027;-76
2020/12/12 09:18:54;;;;;;;7.57;4.90;;;7.60;79.90;;;;;;4966204;28;20041;-76
2020/12/12 09:21:20;;;;;;;6.40;4.57;;;7.60;80.00;;;;;;4993107;28;20042;-77
2020/12/12 09:23:46;;;;;;;7.28;4.53;;;7.60;80.00;;;;;;4989345;28;20475;-75
2020/12/12 09:26:11;;;;;;;6.60;4.30;;;7.60;80.00;;;;;;4990103;28;20076;-79
2020/12/12 09:28:37;;;;;;;7.05;4.53;;;7.60;80.00;;;;;;5006416;28;20491;-77
2020/12/12 09:31:04;;;;;;;7.18;4.70;;;7.60;80.00;;;;;;4979025;28;20407;-75
2020/12/12 09:33:31;;;;;;;6.90;4.55;;;7.60;80.00;;;;;;4995649;28;20479;-76
2020/12/12 09:35:57;;;;;;;8.32;5.03;;;7.70;80.00;;;;;;4993348;28;20026;-75
2020/12/12 09:38:22;;;;;;;6.88;4.38;;;7.70;80.00;;;;;;4964537;28;20041;-75
2020/12/12 09:40:50;;;;;;;7.75;5.32;;;7.70;80.00;;;;;;4980510;28;20034;-75
2020/12/12 09:43:17;;;;;;;7.10;4.35;;;7.70;80.00;;;;;;5007743;28;20033;-75
2020/12/12 09:45:44;;;;;;;7.53;4.72;;;7.70;79.90;;;;;;4993094;28;20077;-75
2020/12/12 09:48:10;;;;;;;6.65;4.68;;;7.70;79.90;;;;;;4993351;28;20027;-75
2020/12/12 09:50:36;;;;;;;6.78;5.00;;;7.70;79.90;;;;;;4976878;28;20344;-75
2020/12/12 09:53:03;;;;;;;7.68;5.03;;;7.70;79.90;;;;;;4994709;28;20034;-75
2020/12/12 09:55:30;;;;;;;7.95;5.10;;;7.80;80.00;;;;;;4992652;28;20031;-75
2020/12/12 09:57:57;;;;;;;7.05;4.68;;;7.80;79.90;;;;;;4989427;28;20066;-75
2020/12/12 10:00:24;;;;;;;7.75;5.30;;;7.80;79.90;;;;;;4975979;28;20427;-75
2020/12/12 10:02:50;;;;;;;7.90;5.00;;;7.80;79.90;;;;;;4974089;28;20348;-74
2020/12/12 10:05:16;;;;;;;8.88;4.95;;;7.80;80.50;;;;;;5000327;28;20046;-74
2020/12/12 10:07:42;;;;;;;7.57;4.88;;;7.80;79.90;;;;;;4964195;28;20058;-75
2020/12/12 10:10:08;;;;;;;7.72;5.10;;;7.80;79.90;;;;;;4989808;28;20105;-75
2020/12/12 10:12:33;;;;;;;6.93;5.03;;;7.80;79.80;;;;;;4991185;28;20035;-75
2020/12/12 10:14:59;;;;;;;8.60;5.72;;;7.80;79.90;;;;;;4962726;28;20080;-75
2020/12/12 10:17:25;;;;;;;6.45;4.63;;;7.80;79.80;;;;;;4974039;28;20071;-75
2020/12/12 10:19:51;;;;;;;8.38;4.88;;;7.90;79.90;;;;;;4956759;28;20073;-75
2020/12/12 10:22:16;;;;;;;7.50;5.07;;;7.90;79.90;;;;;;4973733;28;20086;-75
2020/12/12 10:24:42;;;;;;;8.40;5.00;;;7.90;79.90;;;;;;4974053;28;20494;-75
2020/12/12 10:27:08;;;;;;;8.90;5.10;;;7.80;79.80;;;;;;4992079;28;20070;-75
2020/12/12 10:29:33;;;;;;;8.75;5.20;;;7.90;79.80;;;;;;4991761;28;20054;-75
2020/12/12 10:32:00;;;;;;;8.35;5.53;;;7.90;79.80;;;;;;4992072;28;20064;-76
2020/12/12 10:34:25;;;;;;;8.25;5.15;;;7.90;79.90;;;;;;4992090;28;20443;-75
2020/12/12 10:36:51;;;;;;;9.02;5.10;;;7.90;79.80;;;;;;4974716;28;20118;-75
2020/12/12 10:39:27;;;;;;;7.97;5.38;;;7.90;79.80;;;;;;4979255;28;20450;-75
2020/12/12 10:41:53;;;;;;;8.63;5.00;;;8.00;79.90;;;;;;4993201;28;20557;-75
2020/12/12 10:44:18;;;;;;;8.10;5.40;;;8.00;79.80;;;;;;4988341;28;20026;-75
2020/12/12 10:46:44;;;;;;;9.48;5.43;;;8.00;79.80;;;;;;4971459;28;20030;-75
2020/12/12 10:49:10;;;;;;;8.15;5.25;;;8.00;79.80;;;;;;4991052;28;20015;-75
2020/12/12 10:51:42;;;;;;;7.90;5.15;;;8.00;79.80;;;;;;4972535;28;20501;-76
2020/12/12 10:54:07;;;;;;;7.70;5.30;;;8.00;79.80;;;;;;4972857;28;20062;-75
2020/12/12 10:56:33;;;;;;;8.63;4.88;;;8.00;79.80;;;;;;4974702;28;20027;-75
2020/12/12 10:58:59;;;;;;;8.50;5.68;;;8.00;79.80;;;;;;4988453;28;20402;-74
2020/12/12 11:01:25;;;;;;;7.55;5.45;;;8.00;79.80;;;;;;4989880;28;20042;-74
2020/12/12 11:03:50;;;;;;;7.22;4.65;;;8.10;79.90;;;;;;5007509;28;20022;-76
2020/12/12 11:06:16;;;;;;;9.15;5.70;;;8.10;79.80;;;;;;4990123;28;20135;-75
2020/12/12 11:08:42;;;;;;;8.90;5.43;;;8.10;80.00;;;;;;4973549;28;20088;-74
2020/12/12 11:11:07;;;;;;;8.02;5.03;;;8.10;79.80;;;;;;4977485;28;20066;-75
2020/12/12 11:13:33;;;;;;;9.93;5.50;;;8.10;79.80;;;;;;4972731;28;20030;-76
2020/12/12 11:15:59;;;;;;;8.88;5.30;;;8.10;79.80;;;;;;4959820;28;20035;-75
2020/12/12 11:18:24;;;;;;;9.10;5.68;;;8.10;79.80;;;;;;4971791;28;20031;-75
2020/12/12 11:20:50;;;;;;;7.57;5.05;;;8.20;79.90;;;;;;4999617;28;20077;-76
2020/12/12 11:23:16;;;;;;;9.35;5.60;;;8.20;79.80;;;;;;4975515;28;20091;-77
2020/12/12 11:25:41;;;;;;;8.05;5.15;;;8.20;79.90;;;;;;4983168;28;20065;-76
2020/12/12 11:28:07;;;;;;;8.73;5.75;;;8.20;79.80;;;;;;4970732;28;20039;-76
2020/12/12 11:30:33;;;;;;;7.13;5.07;;;8.20;79.80;;;;;;4988541;28;20125;-77
2020/12/12 11:32:59;;;;;;;9.43;6.07;;;8.20;79.80;;;;;;4990546;28;20045;-77
2020/12/12 11:35:40;;;;;;;7.90;4.97;;;8.20;79.80;;;;;;4976205;28;20039;-77
2020/12/12 11:48:48;;;;;;;9.52;6.70;;;8.30;79.80;;;;;;4981262;28;20039;-76
2020/12/12 11:51:14;;;;;;;8.93;5.38;;;8.30;79.80;;;;;;5006882;28;20467;-77
2020/12/12 11:53:40;;;;;;;8.50;5.75;;;8.30;79.80;;;;;;4991662;28;20037;-76
2020/12/12 11:56:06;;;;;;;8.00;5.35;;;8.30;79.80;;;;;;4995160;28;20506;-75
2020/12/12 11:58:33;;;;;;;9.00;5.63;;;8.40;79.90;;;;;;4968076;28;20122;-77
2020/12/12 12:00:59;;;;;;;8.77;6.13;;;8.40;79.80;;;;;;4959762;28;20043;-78
2020/12/12 12:03:25;;;;;;;8.85;5.68;;;8.40;79.80;;;;;;4977127;28;20023;-77
2020/12/12 12:05:52;;;;;;;9.15;5.85;;;8.40;79.80;;;;;;4959562;28;20054;-76
2020/12/12 12:11:10;;;;;;;9.25;6.22;;;8.40;79.80;;;;;;4991494;28;20046;-76
2020/12/12 12:13:34;;;;;;;9.82;5.35;;;8.40;79.80;;;;;;4976567;28;20039;-76
2020/12/12 12:16:00;;;;;;;8.57;5.70;;;8.40;79.80;;;;;;4976799;28;20027;-76
2020/12/12 12:18:26;;;;;;;9.10;6.28;;;8.50;79.90;;;;;;4962237;28;20027;-76
2020/12/12 12:20:51;;;;;;;9.30;6.15;;;8.40;79.80;;;;;;4983084;28;20046;-75
2020/12/12 12:23:17;;;;;;;8.40;5.68;;;8.50;79.80;;;;;;4996307;28;20041;-75
2020/12/12 12:25:43;;;;;;;8.05;5.32;;;8.50;79.80;;;;;;4986158;28;20071;-76
2020/12/12 12:28:09;;;;;;;8.38;5.85;;;8.50;79.80;;;;;;4988037;28;20459;-75
2020/12/12 12:30:35;;;;;;;7.45;5.30;;;8.50;79.80;;;;;;5008795;28;20034;-76
2020/12/12 12:33:00;;;;;;;8.88;5.43;;;8.60;79.90;;;;;;4976993;28;20463;-75
2020/12/12 12:35:26;;;;;;;8.77;5.45;;;8.60;79.80;;;;;;4979448;28;20034;-76
2020/12/12 12:37:52;;;;;;;8.77;5.97;;;8.60;79.80;;;;;;4986124;28;20389;-75
2020/12/12 12:40:17;;;;;;;9.40;6.28;;;8.60;79.80;;;;;;4995346;28;20039;-75
2020/12/12 12:42:43;;;;;;;10.30;6.20;;;8.60;79.80;;;;;;4994359;28;20043;-75
2020/12/12 12:45:11;;;;;;;8.80;5.78;;;8.60;79.80;;;;;;4992062;28;20030;-76
2020/12/12 12:47:36;;;;;;;10.25;6.22;;;8.60;79.80;;;;;;4992049;28;20035;-76
2020/12/12 12:50:03;;;;;;;9.75;5.75;;;8.70;79.80;;;;;;4977075;28;20390;-77
2020/12/12 12:52:28;;;;;;;8.93;6.30;;;8.70;79.80;;;;;;4987909;28;20465;-75
2020/12/12 12:54:54;;;;;;;8.25;5.47;;;8.70;79.80;;;;;;4984112;28;20044;-75
2020/12/12 12:57:20;;;;;;;9.38;5.90;;;8.70;79.80;;;;;;5006369;28;20403;-76
2020/12/12 12:59:45;;;;;;;8.68;5.90;;;8.70;79.80;;;;;;4996347;28;20036;-75
2020/12/12 13:02:11;;;;;;;10.25;6.30;;;8.70;79.80;;;;;;4994845;28;20046;-79
2020/12/12 13:04:37;;;;;;;8.65;5.90;;;8.80;79.90;;;;;;4993795;28;20054;-76
2020/12/12 13:07:02;;;;;;;8.80;5.85;;;8.80;79.90;;;;;;4977573;28;20031;-76
2020/12/12 13:09:28;;;;;;;10.38;6.10;;;8.80;79.80;;;;;;4975420;28;20368;-76
2020/12/12 13:11:54;;;;;;;8.90;5.85;;;8.80;79.90;;;;;;4985929;28;20125;-77
2020/12/12 13:14:20;;;;;;;9.02;5.78;;;8.80;79.80;;;;;;4990191;28;20509;-76
2020/12/12 13:16:45;;;;;;;11.30;6.65;;;8.80;79.80;;;;;;4993001;28;20036;-76